Time;durP1;ratioP1;P1;durP2;ratioP2;P2;SDS_P1;SDS_P2;PMS_P1;PMS_P2;Temp;Humidity;BMP_temperature;BMP_pressure;BME280_temperature;BME280_humidity;BME280_pressure;Samples;Min_cycle;Max_cycle;Signal;HPM_P1;HPM_P2
2022/09/12 00:02:21;;;;;;;4.82;3.80;;;;;;;22.94;52.79;101812.13;4997128;28;20030;-74
2022/09/12 00:04:47;;;;;;;4.43;3.95;;;;;;;22.95;53.05;101804.97;4978402;28;20047;-74
2022/09/12 00:07:12;;;;;;;4.35;3.88;;;;;;;22.96;52.86;101810.09;4998333;28;20045;-74
2022/09/12 00:09:38;;;;;;;4.90;3.55;;;;;;;22.97;52.96;101800.31;5000048;28;20041;-75
2022/09/12 00:12:04;;;;;;;4.82;3.78;;;;;;;22.95;52.97;101804.97;4996513;28;20080;-77
2022/09/12 00:14:30;;;;;;;4.22;3.42;;;;;;;22.97;53.01;101805.63;5000389;28;20062;-75
2022/09/12 00:16:59;;;;;;;5.45;4.25;;;;;;;22.96;52.93;101798.66;4971765;28;20064;-74
2022/09/12 00:19:26;;;;;;;3.95;3.55;;;;;;;22.92;53.12;101795.53;5001949;28;20117;-74
2022/09/12 00:21:52;;;;;;;4.20;3.58;;;;;;;22.77;52.96;101768.03;5000766;28;20034;-75
2022/09/12 00:24:17;;;;;;;4.90;3.83;;;;;;;22.92;53.03;101788.38;4977643;28;20038;-74
2022/09/12 00:26:43;;;;;;;6.50;4.03;;;;;;;22.92;52.97;101785.72;4998137;28;20065;-74
2022/09/12 00:29:15;;;;;;;4.82;4.00;;;;;;;22.90;53.13;101782.44;4976577;28;20040;-75
2022/09/12 00:31:40;;;;;;;5.25;3.78;;;;;;;22.94;53.06;101782.06;4994345;28;20041;-75
2022/09/12 00:34:06;;;;;;;4.05;3.65;;;;;;;22.91;52.83;101781.44;4999176;28;20475;-74
2022/09/12 00:36:31;;;;;;;3.58;3.28;;;;;;;22.92;52.99;101784.91;4995451;28;20108;-75
2022/09/12 00:38:57;;;;;;;4.47;3.70;;;;;;;22.92;52.60;101776.94;4999099;28;20042;-75
2022/09/12 00:41:24;;;;;;;6.10;3.70;;;;;;;22.92;52.58;101777.75;4997354;28;20042;-74
2022/09/12 00:44:14;;;;;;;5.25;4.25;;;;;;;22.91;53.02;101781.44;4997664;28;20072;-74
2022/09/12 00:46:48;;;;;;;5.03;3.60;;;;;;;22.90;52.77;101771.81;4994958;28;20400;-75
2022/09/12 00:49:22;;;;;;;4.80;4.10;;;;;;;22.91;52.62;101773.47;4999197;28;20046;-74
2022/09/12 00:51:53;;;;;;;5.07;3.47;;;;;;;22.92;52.83;101771.63;4999586;28;20168;-74
2022/09/12 00:54:24;;;;;;;4.57;3.53;;;;;;;22.84;52.93;101756.59;4996961;28;20087;-74
2022/09/12 00:56:54;;;;;;;4.25;3.55;;;;;;;22.87;52.94;101764.19;5001885;28;20037;-74
2022/09/12 00:59:28;;;;;;;4.85;3.40;;;;;;;22.91;52.96;101762.84;4999204;28;20124;-75
2022/09/12 01:01:54;;;;;;;4.60;3.65;;;;;;;22.90;52.85;101761.19;4994623;28;20048;-76
2022/09/12 01:04:22;;;;;;;3.75;3.40;;;;;;;22.90;52.68;101763.00;4999563;28;20068;-74
2022/09/12 01:06:49;;;;;;;4.88;4.18;;;;;;;22.89;52.56;101762.19;4998707;28;20499;-75
2022/09/12 01:09:19;;;;;;;4.53;3.78;;;;;;;22.88;52.83;101757.88;4982421;28;20053;-75
2022/09/12 01:11:47;;;;;;;4.03;3.63;;;;;;;22.88;52.80;101752.56;4980689;28;20131;-75
2022/09/12 01:14:14;;;;;;;4.53;3.60;;;;;;;22.87;52.67;101752.75;5001016;28;20042;-75
2022/09/12 01:16:40;;;;;;;3.80;3.40;;;;;;;22.87;52.80;101753.56;4995899;28;20113;-75
2022/09/12 01:19:14;;;;;;;4.75;3.60;;;;;;;22.87;52.93;101750.09;4999060;28;20042;-75
2022/09/12 01:22:07;;;;;;;4.15;3.47;;;;;;;22.87;53.03;101747.44;4996494;28;20134;-75
2022/09/12 01:25:04;;;;;;;4.55;3.83;;;;;;;22.87;52.79;101744.78;4995934;28;20042;-75
2022/09/12 01:27:42;;;;;;;3.95;3.55;;;;;;;22.86;52.66;101749.25;5002581;28;20479;-75
2022/09/12 01:30:17;;;;;;;4.88;3.90;;;;;;;22.87;52.71;101750.91;4997183;28;20066;-75
2022/09/12 01:33:05;;;;;;;5.28;4.55;;;;;;;22.88;52.62;101752.56;4996001;28;20045;-75
2022/09/12 01:35:44;;;;;;;4.90;4.05;;;;;;;22.87;52.91;101739.47;4998438;28;21062;-75
2022/09/12 01:38:28;;;;;;;4.60;4.00;;;;;;;22.86;52.81;101740.47;5001581;28;20041;-75
2022/09/12 01:40:59;;;;;;;4.55;4.10;;;;;;;22.86;52.87;101743.97;4998320;28;22007;-76
2022/09/12 01:43:41;;;;;;;6.13;4.10;;;;;;;22.84;52.56;101742.47;4998069;28;20041;-75
2022/09/12 01:46:23;;;;;;;5.45;3.58;;;;;;;;;;4996038;28;20030;-76
2022/09/12 01:49:08;;;;;;;4.45;3.53;;;;;;;22.84;52.94;101737.19;4980041;28;20041;-76
2022/09/12 01:52:17;;;;;;;8.82;3.85;;;;;;;22.85;52.59;101741.47;4999861;28;20483;-75
2022/09/12 01:54:54;;;;;;;4.50;3.63;;;;;;;22.83;52.76;101735.53;4958796;28;20049;-76
2022/09/12 01:57:28;;;;;;;5.15;3.85;;;;;;;22.81;52.73;101735.66;5000890;28;20033;-75
2022/09/12 02:00:00;;;;;;;5.30;3.90;;;;;;;22.82;52.96;101728.56;4997211;28;20116;-76
2022/09/12 02:02:40;;;;;;;3.80;3.40;;;;;;;22.84;52.86;101723.91;4999278;28;20037;-75
2022/09/12 02:05:40;;;;;;;4.88;3.70;;;;;;;22.83;52.72;101723.06;4995894;28;20042;-75
2022/09/12 02:08:14;;;;;;;3.92;3.42;;;;;;;22.74;52.75;101708.16;4935471;28;20050;-75
2022/09/12 02:11:01;;;;;;;4.47;4.07;;;;;;;22.83;52.71;101719.59;4996447;28;20308;-75
2022/09/12 02:13:39;;;;;;;4.20;3.80;;;;;;;22.80;52.47;101715.44;4998534;28;20061;-75
2022/09/12 02:16:10;;;;;;;3.88;3.40;;;;;;;22.80;52.52;101715.44;4995790;28;20042;-75
2022/09/12 02:18:43;;;;;;;5.03;3.75;;;;;;;22.80;52.60;101704.81;4998504;28;20100;-75
2022/09/12 02:21:09;;;;;;;5.47;3.88;;;;;;;22.80;52.77;101701.31;5002459;28;20038;-75
2022/09/12 02:23:39;;;;;;;4.43;3.63;;;;;;;22.68;52.87;101686.81;4996449;28;20545;-75
2022/09/12 02:26:31;;;;;;;4.38;3.72;;;;;;;22.80;52.48;101702.16;4989284;28;20471;-75
2022/09/12 02:28:57;;;;;;;4.30;3.60;;;;;;;22.78;52.77;101706.78;4999108;28;20041;-75
2022/09/12 02:31:31;;;;;;;5.15;3.83;;;;;;;22.79;52.52;101705.78;4995542;28;20104;-75
2022/09/12 02:34:20;;;;;;;4.82;3.88;;;;;;;22.79;52.54;101704.97;4996911;28;20452;-76
2022/09/12 02:37:07;;;;;;;;;;;;;;;22.79;52.53;101704.97;4996816;28;20504;-75
2022/09/12 02:39:33;;;;;;;4.03;3.63;;;;;;;22.78;52.52;101708.63;5000474;28;19917;-75
2022/09/12 02:42:01;;;;;;;4.40;3.50;;;;;;;22.76;52.75;101700.00;4980215;28;20671;-75
2022/09/12 02:44:29;;;;;;;4.97;3.65;;;;;;;22.77;52.67;101704.31;4999774;28;20049;-75
2022/09/12 02:47:04;;;;;;;4.45;3.97;;;;;;;22.71;52.67;101687.28;4994586;28;20045;-75
2022/09/12 02:49:30;;;;;;;4.15;3.67;;;;;;;22.72;52.94;101688.94;4994578;28;20059;-75
2022/09/12 02:51:56;;;;;;;5.10;4.00;;;;;;;22.78;52.44;101698.81;4997522;28;20034;-75
2022/09/12 02:54:23;;;;;;;3.63;3.33;;;;;;;22.74;52.42;101694.88;4995566;28;20037;-75
2022/09/12 02:56:48;;;;;;;4.68;3.58;;;;;;;22.77;52.71;101693.69;4979313;28;20049;-74
2022/09/12 02:59:17;;;;;;;4.70;3.67;;;;;;;22.77;52.63;101693.69;4977810;28;20072;-74
2022/09/12 03:02:03;;;;;;;4.47;3.60;;;;;;;22.75;52.50;101696.53;4999109;28;20029;-75
2022/09/12 03:05:18;;;;;;;5.80;4.18;;;;;;;22.71;52.56;101681.16;4980259;28;20046;-75
2022/09/12 03:08:05;;;;;;;4.30;3.45;;;;;;;22.74;52.42;101686.09;4997859;28;20061;-75
2022/09/12 03:10:59;;;;;;;4.25;3.45;;;;;;;22.75;52.47;101685.09;4977282;28;20045;-74
2022/09/12 03:13:37;;;;;;;4.45;3.50;;;;;;;22.74;52.58;101678.13;4995551;28;20034;-75
2022/09/12 03:16:44;;;;;;;4.10;3.70;;;;;;;22.74;52.58;101671.00;4998429;28;20042;-75
2022/09/12 03:19:30;;;;;;;4.60;3.60;;;;;;;22.73;52.72;101666.69;4917504;29;20099;-75
2022/09/12 03:22:18;;;;;;;4.10;3.60;;;;;;;22.72;52.37;101665.03;4919913;29;20745;-74
2022/09/12 03:25:01;;;;;;;4.70;4.25;;;;;;;22.73;52.60;101657.88;4978061;28;20076;-75
2022/09/12 03:27:42;;;;;;;5.15;3.80;;;;;;;22.73;52.60;101665.84;4996025;28;20054;-74
2022/09/12 03:30:09;;;;;;;3.83;3.40;;;;;;;22.71;52.66;101668.69;4998563;28;20052;-75
2022/09/12 03:32:49;;;;;;;5.50;3.60;;;;;;;22.72;52.46;101683.63;4993907;28;20072;-75
2022/09/12 03:35:17;;;;;;;4.18;3.78;;;;;;;22.71;52.40;101674.00;4995539;28;20820;-75
2022/09/12 03:37:42;;;;;;;4.35;3.42;;;;;;;22.68;52.40;101669.06;4997512;28;20125;-75
2022/09/12 03:40:10;;;;;;;4.47;3.45;;;;;;;22.63;52.61;101665.28;4999294;28;20050;-74
2022/09/12 03:42:37;;;;;;;5.25;4.03;;;;;;;22.71;52.40;101676.66;4986923;28;20048;-74
2022/09/12 03:45:03;;;;;;;4.88;4.05;;;;;;;22.66;52.34;101665.75;4979506;28;20034;-74
2022/09/12 03:47:29;;;;;;;4.43;3.65;;;;;;;22.71;52.52;101667.88;4994495;28;22219;-75
2022/09/12 03:49:54;;;;;;;4.00;3.55;;;;;;;22.70;52.53;101669.69;4995948;28;20157;-75
2022/09/12 03:52:20;;;;;;;4.18;3.75;;;;;;;22.71;52.58;101675.84;4999652;28;20525;-75
2022/09/12 03:54:45;;;;;;;3.95;3.55;;;;;;;22.69;52.39;101665.41;4995550;28;20026;-74
2022/09/12 03:57:11;;;;;;;4.40;3.95;;;;;;;22.69;52.74;101673.34;5000578;28;20588;-74
2022/09/12 03:59:37;;;;;;;3.92;3.53;;;;;;;22.63;52.59;101665.28;4994174;28;20132;-74
2022/09/12 04:02:03;;;;;;;4.15;3.60;;;;;;;22.71;52.32;101670.53;4978503;28;20184;-75
2022/09/12 04:04:29;;;;;;;5.40;4.28;;;;;;;22.68;52.57;101666.41;4995854;28;20049;-75
2022/09/12 04:06:55;;;;;;;4.57;3.72;;;;;;;22.67;52.55;101654.13;4991376;28;20050;-75
2022/09/12 04:09:20;;;;;;;6.60;4.22;;;;;;;22.68;52.65;101662.91;5001521;28;20631;-75
2022/09/12 04:11:46;;;;;;;5.55;4.35;;;;;;;22.68;52.52;101662.91;4993631;28;20092;-75
2022/09/12 04:14:11;;;;;;;5.70;4.25;;;;;;;22.67;52.61;101653.31;4984900;28;20030;-75
2022/09/12 04:16:37;;;;;;;5.65;4.00;;;;;;;22.66;52.38;101655.13;4996585;28;20480;-75
2022/09/12 04:19:02;;;;;;;5.00;4.05;;;;;;;22.65;52.63;101656.13;4982960;28;20058;-75
2022/09/12 04:21:28;;;;;;;5.18;4.38;;;;;;;22.67;52.58;101666.59;5001402;28;20038;-74
2022/09/12 04:23:54;;;;;;;6.15;3.47;;;;;;;22.61;52.44;101652.16;4999362;28;20046;-74
2022/09/12 04:26:19;;;;;;;5.95;4.40;;;;;;;22.67;52.48;101658.63;4989200;28;20049;-75
2022/09/12 04:28:46;;;;;;;5.97;4.43;;;;;;;22.66;52.44;101660.44;5001748;28;20061;-75
2022/09/12 04:31:16;;;;;;;5.53;4.25;;;;;;;22.66;52.53;101663.09;5001186;28;20742;-75
2022/09/12 04:33:43;;;;;;;5.57;4.30;;;;;;;22.65;52.20;101653.50;4997346;28;20026;-75
2022/09/12 04:36:16;;;;;;;4.70;3.95;;;;;;;22.65;52.54;101652.66;4983942;28;20052;-74
2022/09/12 04:38:46;;;;;;;4.93;4.43;;;;;;;22.60;52.24;101646.03;5001890;28;20042;-75
2022/09/12 04:41:17;;;;;;;4.65;4.13;;;;;;;22.64;52.32;101649.19;4996178;28;20095;-75
2022/09/12 04:43:45;;;;;;;4.95;4.00;;;;;;;22.64;52.64;101651.00;4998825;28;20125;-75
2022/09/12 04:46:12;;;;;;;4.40;4.00;;;;;;;22.64;52.41;101649.19;5001740;28;20052;-75
2022/09/12 04:48:38;;;;;;;4.53;4.03;;;;;;;22.63;52.47;101652.03;4996581;28;20044;-74
2022/09/12 04:51:08;;;;;;;5.63;4.57;;;;;;;22.66;52.33;101649.00;4999789;28;20050;-76
2022/09/12 04:53:35;;;;;;;6.28;4.50;;;;;;;22.64;52.29;101654.50;4997996;28;20038;-75
2022/09/12 04:56:05;;;;;;;5.53;4.05;;;;;;;22.64;52.34;101648.34;5002343;28;20060;-75
2022/09/12 04:58:32;;;;;;;5.80;4.70;;;;;;;22.61;52.54;101653.00;4983017;28;20034;-74
2022/09/12 05:01:12;;;;;;;4.75;4.20;;;;;;;22.61;52.54;101650.34;4995544;28;20046;-75
2022/09/12 05:03:38;;;;;;;5.57;4.95;;;;;;;22.61;52.50;101649.50;4994714;28;20030;-75
2022/09/12 05:06:10;;;;;;;4.35;3.95;;;;;;;22.63;52.17;101644.06;4998684;28;20029;-75
2022/09/12 05:08:36;;;;;;;6.03;4.22;;;;;;;22.58;52.37;101639.25;4996504;28;20829;-75
2022/09/12 05:11:05;;;;;;;5.53;4.35;;;;;;;22.61;52.24;101642.38;5002277;28;20092;-75
2022/09/12 05:13:31;;;;;;;;;;;;;;;22.61;52.23;101655.66;4996410;28;20100;-74
2022/09/12 05:15:58;;;;;;;6.60;4.63;;;;;;;22.60;52.14;101651.34;4996746;28;19917;-75
2022/09/12 05:18:25;;;;;;;5.97;4.00;;;;;;;22.60;52.56;101651.34;4995383;28;20619;-74
2022/09/12 05:20:52;;;;;;;5.25;4.22;;;;;;;22.60;52.60;101648.69;4998166;28;20115;-74
2022/09/12 05:23:17;;;;;;;5.88;4.45;;;;;;;22.60;52.50;101659.31;4995094;28;20351;-75
2022/09/12 05:25:53;;;;;;;5.85;4.80;;;;;;;22.63;52.38;101654.69;4997441;28;20034;-74
2022/09/12 05:28:20;;;;;;;5.68;4.38;;;;;;;22.61;52.53;101646.84;4997170;28;20381;-74
2022/09/12 05:30:46;;;;;;;4.28;3.85;;;;;;;22.61;52.08;101645.03;4999967;28;20501;-74
2022/09/12 05:33:13;;;;;;;7.57;4.82;;;;;;;22.58;52.51;101639.25;4995294;28;20041;-75
2022/09/12 05:35:49;;;;;;;5.60;4.75;;;;;;;22.60;52.18;101651.34;4980206;28;20042;-75
2022/09/12 05:38:15;;;;;;;5.72;4.22;;;;;;;22.61;52.28;101645.03;4996991;28;20038;-74
2022/09/12 05:40:40;;;;;;;5.03;4.05;;;;;;;22.61;52.29;101650.34;4996001;28;20048;-75
2022/09/12 05:43:06;;;;;;;4.80;4.30;;;;;;;22.60;52.11;101656.66;4989498;28;20045;-75
2022/09/12 05:45:31;;;;;;;6.25;4.95;;;;;;;22.58;52.26;101640.09;4999965;28;20033;-74
2022/09/12 05:47:57;;;;;;;7.25;4.68;;;;;;;22.62;52.37;101653.81;4978611;28;20053;-74
2022/09/12 05:50:22;;;;;;;4.95;4.10;;;;;;;22.58;52.07;101642.75;4997400;28;20061;-75
2022/09/12 05:52:49;;;;;;;5.57;4.35;;;;;;;22.56;52.52;101649.22;4981817;28;20420;-74
2022/09/12 05:55:15;;;;;;;5.10;4.25;;;;;;;22.61;52.08;101660.97;4953236;28;20119;-75
2022/09/12 05:57:44;;;;;;;6.35;4.50;;;;;;;22.62;52.17;101659.13;4996911;28;20447;-75
2022/09/12 06:00:13;;;;;;;5.35;4.45;;;;;;;22.60;52.00;101661.97;4996106;28;20476;-74
2022/09/12 06:02:38;;;;;;;4.65;4.10;;;;;;;22.60;52.50;101656.66;4993192;28;20053;-75
2022/09/12 06:05:04;;;;;;;5.78;4.60;;;;;;;22.59;52.24;101655.00;4994228;28;20041;-75
2022/09/12 06:07:31;;;;;;;7.10;4.07;;;;;;;22.62;52.02;101659.13;4997437;28;20065;-75
2022/09/12 06:09:58;;;;;;;6.18;4.32;;;;;;;22.60;51.96;101650.53;4995944;28;20135;-75
2022/09/12 06:12:25;;;;;;;6.90;4.50;;;;;;;22.63;52.36;101655.50;4994459;28;20080;-75
2022/09/12 06:14:51;;;;;;;5.30;4.53;;;;;;;22.57;52.26;101645.56;4997703;28;20108;-75
2022/09/12 06:17:17;;;;;;;4.60;3.83;;;;;;;22.63;52.11;101652.03;4997194;28;20045;-75
2022/09/12 06:19:43;;;;;;;5.18;4.22;;;;;;;22.61;52.29;101646.84;4994839;28;20038;-75
2022/09/12 06:22:09;;;;;;;5.38;4.53;;;;;;;22.61;52.35;101652.16;4993993;28;20052;-74
2022/09/12 06:24:35;;;;;;;5.93;4.43;;;;;;;22.60;51.98;101651.34;4981121;28;20053;-74
2022/09/12 06:27:01;;;;;;;4.85;4.32;;;;;;;22.61;52.36;101652.16;4997588;28;20164;-74
2022/09/12 06:29:27;;;;;;;4.55;4.07;;;;;;;22.60;52.43;101653.19;4980597;28;20056;-74
2022/09/12 06:31:53;;;;;;;5.20;4.47;;;;;;;22.56;52.33;101644.75;4994121;28;20373;-74
2022/09/12 06:34:18;;;;;;;6.53;4.40;;;;;;;22.60;52.31;101647.88;4997294;28;20049;-75
2022/09/12 06:36:46;;;;;;;5.43;4.78;;;;;;;22.53;52.12;101636.31;4995633;28;20038;-75
2022/09/12 06:39:20;;;;;;;4.85;4.28;;;;;;;22.60;52.11;101650.53;4996168;28;20054;-74
2022/09/12 06:41:47;;;;;;;5.05;4.30;;;;;;;22.59;52.30;101647.03;4996504;28;20045;-75
2022/09/12 06:44:18;;;;;;;5.97;4.57;;;;;;;22.59;52.25;101648.88;4993487;28;20047;-74
2022/09/12 06:46:44;;;;;;;5.97;4.85;;;;;;;22.59;52.28;101652.34;4990737;28;20038;-74
2022/09/12 06:49:10;;;;;;;6.18;4.90;;;;;;;22.60;52.25;101655.81;4978023;28;20499;-75
2022/09/12 06:51:36;;;;;;;6.55;4.88;;;;;;;22.58;52.00;101649.88;4997546;28;20066;-74
2022/09/12 06:54:02;;;;;;;5.50;4.85;;;;;;;22.54;52.14;101638.78;4994824;28;20041;-74
2022/09/12 06:56:28;;;;;;;5.47;4.90;;;;;;;22.56;52.42;101642.09;4996088;28;20100;-75
2022/09/12 06:58:57;;;;;;;6.03;5.00;;;;;;;22.59;52.47;101652.34;4993512;28;20050;-74
2022/09/12 07:01:29;;;;;;;6.70;4.80;;;;;;;22.56;52.40;101642.09;4978789;28;20034;-75
2022/09/12 07:04:03;;;;;;;5.38;4.72;;;;;;;22.58;52.05;101648.03;4977492;28;20041;-75
2022/09/12 07:06:34;;;;;;;5.93;5.07;;;;;;;22.57;52.26;101648.22;4999168;28;20430;-79
2022/09/12 07:09:01;;;;;;;6.20;5.03;;;;;;;22.57;52.24;101637.59;4978999;28;20029;-76
2022/09/12 07:11:30;;;;;;;6.40;5.00;;;;;;;22.59;52.00;101644.38;4996046;28;20128;-76
2022/09/12 07:13:57;;;;;;;7.97;5.20;;;;;;;22.59;52.25;101643.56;4992955;28;20645;-76
2022/09/12 07:16:23;;;;;;;6.57;5.00;;;;;;;22.58;52.24;101642.75;4977132;28;20044;-75
2022/09/12 07:18:50;;;;;;;7.13;5.07;;;;;;;22.59;52.33;101651.53;4993822;28;20042;-76
2022/09/12 07:21:16;;;;;;;7.18;4.75;;;;;;;22.58;51.92;101639.25;4994135;28;20050;-76
2022/09/12 07:23:41;;;;;;;11.93;7.78;;;;;;;22.58;52.16;101647.22;4996569;28;20038;-72
2022/09/12 07:26:10;;;;;;;9.43;6.57;;;;;;;22.58;52.31;101639.25;4976300;28;20685;-74
2022/09/12 07:28:36;;;;;;;7.38;5.57;;;;;;;22.59;52.42;101638.25;4992471;28;20037;-73
2022/09/12 07:31:11;;;;;;;8.32;6.50;;;;;;;22.58;52.34;101645.38;4972367;28;20392;-74
2022/09/12 07:33:38;;;;;;;7.10;5.20;;;;;;;22.59;52.31;101640.91;4990355;28;20038;-73
2022/09/12 07:36:07;;;;;;;6.85;5.55;;;;;;;22.60;52.08;101639.91;4996907;28;20491;-76
2022/09/12 07:38:33;;;;;;;8.15;5.55;;;;;;;22.59;52.34;101632.94;4988947;28;20157;-74
2022/09/12 07:41:00;;;;;;;9.80;6.07;;;;;;;22.57;52.07;101627.81;4991251;28;20458;-73
2022/09/12 07:43:25;;;;;;;8.15;6.13;;;;;;;22.59;52.04;101628.47;4995073;28;20424;-74
2022/09/12 07:45:55;;;;;;;6.55;5.00;;;;;;;22.54;51.97;101620.22;4988867;28;20095;-74
2022/09/12 07:48:20;;;;;;;;;;;;;;;22.61;51.98;101628.28;4992761;28;20152;-74
2022/09/12 07:50:46;;;;;;;7.53;5.70;;;;;;;22.61;52.27;101630.94;4988432;28;20323;-74
2022/09/12 07:53:11;;;;;;;6.90;5.05;;;;;;;22.61;52.20;101634.41;4994713;28;20511;-73
2022/09/12 07:55:37;;;;;;;8.65;6.00;;;;;;;22.60;52.36;101632.75;4994100;28;20085;-73
2022/09/12 07:58:03;;;;;;;7.70;5.00;;;;;;;22.60;52.03;101631.94;4993035;28;20459;-73
2022/09/12 08:00:34;;;;;;;9.05;5.85;;;;;;;22.61;52.07;101638.91;4991420;28;20030;-74
2022/09/12 08:03:01;;;;;;;7.78;5.50;;;;;;;22.61;52.37;101638.91;4992805;28;20107;-73
2022/09/12 08:05:27;;;;;;;7.93;5.85;;;;;;;22.56;52.11;101634.13;4988748;28;20041;-74
2022/09/12 08:07:52;;;;;;;6.63;5.43;;;;;;;22.63;51.99;101633.44;4989428;28;21124;-73
2022/09/12 08:10:18;;;;;;;7.65;5.82;;;;;;;22.60;52.00;101632.75;4972244;28;20041;-73
2022/09/12 08:12:43;;;;;;;7.43;5.40;;;;;;;22.63;52.19;101639.56;4967971;28;20037;-73
2022/09/12 08:15:09;;;;;;;10.82;5.82;;;;;;;22.64;52.01;101635.09;4992705;28;20056;-73
2022/09/12 08:17:35;;;;;;;13.25;8.18;;;;;;;22.67;51.97;101634.72;4991945;28;20049;-75
2022/09/12 08:20:01;;;;;;;17.38;8.85;;;;;;;22.73;51.73;101637.47;4986108;28;20033;-74
2022/09/12 08:22:26;;;;;;;16.83;8.85;;;;;;;22.78;51.89;101636.94;4991190;28;20455;-75
2022/09/12 08:24:52;;;;;;;15.02;8.35;;;;;;;22.79;52.07;101639.41;4990328;28;20038;-76
2022/09/12 08:27:18;;;;;;;12.38;7.85;;;;;;;22.79;51.79;101634.09;4995149;28;20065;-76
2022/09/12 08:29:44;;;;;;;15.25;8.50;;;;;;;22.80;52.08;101632.25;4978114;28;20041;-75
2022/09/12 08:32:09;;;;;;;25.52;13.13;;;;;;;22.71;52.31;101625.38;5001712;28;20041;-75
2022/09/12 08:34:35;;;;;;;23.33;12.18;;;;;;;22.74;52.29;101631.16;4982585;28;20690;-75
2022/09/12 08:37:00;;;;;;;22.00;12.43;;;;;;;22.76;52.12;101629.16;4999998;28;20050;-76
2022/09/12 08:39:26;;;;;;;21.40;11.23;;;;;;;22.70;52.15;101621.09;5002530;28;20049;-76
2022/09/12 08:42:01;;;;;;;19.30;11.10;;;;;;;22.75;51.67;101637.28;4990812;28;20037;-75
2022/09/12 08:45:00;;;;;;;21.33;10.63;;;;;;;22.78;51.95;101635.09;4995751;28;20049;-75
2022/09/12 08:47:33;;;;;;;21.58;10.27;;;;;;;22.90;51.64;101636.34;4951171;28;20044;-75
2022/09/12 08:50:16;;;;;;;24.05;11.18;;;;;;;23.04;51.24;101633.91;5002739;28;20108;-77
2022/09/12 08:53:02;;;;;;;19.05;10.07;;;;;;;23.13;51.04;101638.13;4997172;28;20069;-78
2022/09/12 08:55:44;;;;;;;18.02;10.30;;;;;;;23.16;50.85;101630.63;4996520;28;20145;-77
2022/09/12 08:58:19;;;;;;;18.00;9.75;;;;;;;23.21;50.83;101641.53;4996875;28;20045;-72
2022/09/12 09:01:20;;;;;;;16.33;9.23;;;;;;;23.22;50.82;101639.69;5002713;28;20128;-78
2022/09/12 09:03:57;;;;;;;15.10;8.75;;;;;;;23.11;51.42;101642.78;4958901;28;20050;-76
2022/09/12 09:06:32;;;;;;;13.05;8.18;;;;;;;23.03;51.75;101641.06;5008386;28;20030;-76
2022/09/12 09:09:29;;;;;;;17.15;9.05;;;;;;;23.00;51.41;101635.28;5002325;28;20045;-76
2022/09/12 09:12:23;;;;;;;13.73;8.27;;;;;;;22.99;51.57;101639.78;5002456;28;20030;-76
2022/09/12 09:15:01;;;;;;;20.88;10.77;;;;;;;22.98;51.29;101630.16;5004101;28;20052;-75
2022/09/12 09:17:50;;;;;;;22.83;11.75;;;;;;;23.21;50.83;101630.06;5007680;28;20041;-76
2022/09/12 09:20:21;;;;;;;17.97;11.03;;;;;;;23.37;50.49;101639.72;4979212;28;20030;-73
2022/09/12 09:23:11;;;;;;;18.70;10.73;;;;;;;23.43;50.11;101631.81;5001656;28;20038;-79
2022/09/12 09:25:49;;;;;;;22.60;10.63;;;;;;;23.49;49.91;101619.59;4984836;28;20061;-74
2022/09/12 09:28:30;;;;;;;20.52;10.23;;;;;;;23.55;50.04;101620.72;4999912;28;20498;-73
2022/09/12 09:30:56;;;;;;;16.63;9.55;;;;;;;23.51;50.21;101609.59;5000706;28;20068;-72
2022/09/12 09:33:29;;;;;;;21.35;10.55;;;;;;;23.55;49.92;101610.91;4996145;28;20512;-82
2022/09/12 09:36:17;;;;;;;21.67;9.65;;;;;;;23.54;50.07;101595.16;4980440;28;20508;-78
2022/09/12 09:38:59;;;;;;;19.80;10.15;;;;;;;23.61;50.02;101607.53;4999693;28;20857;-72
2022/09/12 09:41:40;;;;;;;22.60;9.85;;;;;;;23.63;49.60;101599.38;4993492;28;20373;-75
2022/09/12 09:44:06;;;;;;;17.70;9.32;;;;;;;23.68;49.74;101603.09;4997058;28;20118;-71
2022/09/12 09:46:32;;;;;;;22.50;10.80;;;;;;;23.73;49.58;101597.25;5000497;28;20053;-71
2022/09/12 09:49:02;;;;;;;18.45;9.88;;;;;;;23.77;49.46;101596.69;5003743;28;20050;-75
2022/09/12 09:51:36;;;;;;;19.05;10.18;;;;;;;23.77;49.34;101594.03;4987033;28;20045;-73
2022/09/12 09:54:23;;;;;;;20.80;11.07;;;;;;;23.80;49.57;101590.16;4999022;28;20084;-74
2022/09/12 09:56:48;;;;;;;20.05;10.45;;;;;;;23.82;49.51;101580.16;4991145;28;20053;-74
2022/09/12 09:59:16;;;;;;;18.52;10.15;;;;;;;23.85;49.42;101584.28;4999489;28;20034;-74
2022/09/12 10:01:45;;;;;;;21.92;11.65;;;;;;;23.78;49.56;101582.38;4999553;28;20495;-75
2022/09/12 10:04:20;;;;;;;29.43;12.10;;;;;;;23.75;49.55;101574.78;5002422;28;20121;-77
2022/09/12 10:06:46;;;;;;;32.15;13.18;;;;;;;23.80;49.42;101575.03;4984370;28;20042;-72
2022/09/12 10:09:14;;;;;;;35.40;12.85;;;;;;;23.72;49.60;101575.16;4984912;28;20042;-72
2022/09/12 10:11:40;;;;;;;34.97;12.93;;;;;;;23.69;49.52;101586.13;5002159;28;20117;-72
2022/09/12 10:14:33;;;;;;;30.88;13.98;;;;;;;23.65;49.98;101573.41;4994465;28;20113;-72
2022/09/12 10:17:00;;;;;;;26.85;12.50;;;;;;;23.70;49.86;101576.34;4980887;28;20112;-76
2022/09/12 10:19:38;;;;;;;27.08;13.85;;;;;;;23.86;49.47;101576.09;4996187;28;20188;-74
2022/09/12 10:22:05;;;;;;;30.92;13.93;;;;;;;23.81;49.77;101563.38;4985066;28;20042;-73
2022/09/12 10:24:45;;;;;;;29.98;12.45;;;;;;;23.83;49.75;101559.69;4988895;28;20129;-72
2022/09/12 10:27:11;;;;;;;27.98;13.70;;;;;;;23.90;49.47;101564.09;5008275;28;20056;-73
2022/09/12 10:29:52;;;;;;;26.35;12.73;;;;;;;23.84;49.46;101540.88;4981643;28;20330;-70
2022/09/12 10:32:33;;;;;;;30.58;13.43;;;;;;;23.94;49.55;101554.72;4988615;28;20104;-75
2022/09/12 10:35:07;;;;;;;24.35;13.30;;;;;;;24.01;49.49;101562.75;4989441;28;20126;-75
2022/09/12 10:37:39;;;;;;;25.73;12.57;;;;;;;24.03;49.16;101545.56;5005908;28;20120;-71
2022/09/12 10:40:12;;;;;;;30.15;13.98;;;;;;;24.05;49.26;101543.53;4995776;28;20146;-72
2022/09/12 10:42:48;;;;;;;24.10;12.60;;;;;;;24.09;49.01;101544.00;4985029;28;20054;-74
2022/09/12 10:45:23;;;;;;;25.27;13.25;;;;;;;24.10;49.09;101538.50;5003053;28;20061;-79
2022/09/12 10:47:50;;;;;;;24.25;12.80;;;;;;;24.11;48.99;101532.16;5001490;28;20057;-74
2022/09/12 10:50:24;;;;;;;25.17;12.77;;;;;;;24.16;49.08;101534.25;5002952;28;20859;-75
2022/09/12 10:52:50;;;;;;;23.92;13.15;;;;;;;24.17;49.02;101535.88;4999652;28;20033;-77
2022/09/12 10:55:16;;;;;;;23.52;12.77;;;;;;;24.11;49.06;101516.19;4989205;28;20919;-72
2022/09/12 10:57:51;;;;;;;29.40;14.95;;;;;;;24.06;49.35;101521.28;4948615;28;20431;-77
2022/09/12 11:00:19;;;;;;;27.02;13.52;;;;;;;24.09;49.05;101526.22;4998813;28;20371;-75
2022/09/12 11:02:50;;;;;;;29.30;13.73;;;;;;;23.99;49.72;101520.38;4989766;28;20037;-75
2022/09/12 11:05:18;;;;;;;24.92;12.90;;;;;;;23.84;49.85;101521.44;4993125;28;21564;-75
2022/09/12 11:08:02;;;;;;;24.67;12.65;;;;;;;23.83;49.99;101528.59;4996451;28;20677;-75
2022/09/12 11:10:42;;;;;;;25.17;12.60;;;;;;;23.70;50.52;101524.00;4994568;28;20084;-77
2022/09/12 11:13:26;;;;;;;23.50;12.68;;;;;;;23.76;50.23;101515.25;4983996;28;20041;-75
2022/09/12 11:15:58;;;;;;;21.23;11.55;;;;;;;23.79;49.93;101520.19;4948757;28;20093;-75
2022/09/12 11:18:55;;;;;;;26.83;12.43;;;;;;;23.72;50.13;101507.84;4990906;28;20499;-75
2022/09/12 11:21:58;;;;;;;23.60;11.82;;;;;;;23.72;50.26;101506.00;4991908;28;20498;-75
2022/09/12 11:25:03;;;;;;;24.15;11.90;;;;;;;23.70;50.22;101501.91;4995030;28;20100;-75
2022/09/12 11:27:54;;;;;;;21.27;11.73;;;;;;;23.70;50.02;101502.72;4992435;28;20074;-75
2022/09/12 11:30:19;;;;;;;21.52;12.55;;;;;;;23.73;50.42;101496.19;4952817;28;20037;-80
2022/09/12 11:33:22;;;;;;;22.23;11.45;;;;;;;23.68;50.29;101488.75;4978030;28;20105;-76
2022/09/12 11:35:51;;;;;;;20.85;10.57;;;;;;;23.67;50.24;101489.78;4999137;28;20467;-76
2022/09/12 11:38:31;;;;;;;21.33;12.48;;;;;;;23.65;49.98;101475.84;4998902;28;20678;-77
2022/09/12 11:41:02;;;;;;;18.95;11.70;;;;;;;23.68;50.09;101483.44;4992817;28;20041;-76
2022/09/12 11:43:27;;;;;;;21.85;11.23;;;;;;;23.69;50.11;101481.59;4994165;28;20080;-76
2022/09/12 11:45:58;;;;;;;21.27;10.73;;;;;;;23.73;50.00;101501.53;4970024;28;20034;-76